Time;durP1;ratioP1;P1;durP2;ratioP2;P2;SDS_P1;SDS_P2;PMS_P1;PMS_P2;Temp;Humidity;BMP_temperature;BMP_pressure;BME280_temperature;BME280_humidity;BME280_pressure;Samples;Min_cycle;Max_cycle;Signal;HPM_P1;HPM_P2
2024/04/19 00:02:05;;;;;;;1.30;1.20;;;;;;;;;;6319939;26;10000389;-77
2024/04/19 00:05:08;;;;;;;1.50;1.40;;;;;;;;;;6669614;26;19991;-77
2024/04/19 00:08:08;;;;;;;1.63;1.35;;;;;;;;;;6702805;26;20011;-77
2024/04/19 00:11:09;;;;;;;1.63;1.50;;;;;;;;;;6701680;26;20033;-76
2024/04/19 00:14:09;;;;;;;2.03;1.27;;;;;;;;;;6700962;26;20472;-76
2024/04/19 00:17:11;;;;;;;1.30;1.20;;;;;;;;;;6697146;26;20429;-78
2024/04/19 00:20:12;;;;;;;1.98;1.13;;;;;;;;;;6698476;26;20010;-77
2024/04/19 00:23:12;;;;;;;1.47;1.30;;;;;;;;;;6696682;26;20003;-77
2024/04/19 00:26:12;;;;;;;2.53;1.30;;;;;;;;;;6701322;26;20233;-77
2024/04/19 00:29:13;;;;;;;1.37;1.27;;;;;;;;;;6698298;26;20005;-78
2024/04/19 00:32:13;;;;;;;1.83;1.30;;;;;;;;;;6701154;26;19992;-76
2024/04/19 00:35:13;;;;;;;1.30;1.20;;;;;;;;;;6707112;26;20500;-77
2024/04/19 00:38:14;;;;;;;1.80;1.00;;;;;;;;;;6669125;26;20008;-76
2024/04/19 00:41:14;;;;;;;1.43;1.30;;;;;;;;;;6701997;26;20403;-77
2024/04/19 00:44:14;;;;;;;1.43;1.20;;;;;;;;;;6694613;26;20000;-77
2024/04/19 00:47:15;;;;;;;1.37;1.27;;;;;;;;;;6695414;26;20064;-76
2024/04/19 00:50:16;;;;;;;1.83;1.30;;;;;;;;;;6671628;26;20028;-77
2024/04/19 00:53:19;;;;;;;1.30;1.20;;;;;;;;;;6666126;26;20076;-77
2024/04/19 00:56:19;;;;;;;1.10;1.00;;;;;;;;;;6696446;26;20007;-77
2024/04/19 00:59:20;;;;;;;1.23;1.10;;;;;;;;;;6704115;26;20007;-76
2024/04/19 01:02:20;;;;;;;1.23;1.10;;;;;;;;;;6694529;26;20036;-77
2024/04/19 01:05:21;;;;;;;1.93;1.13;;;;;;;;;;6703237;26;20391;-76
2024/04/19 01:08:23;;;;;;;1.27;1.17;;;;;;;;;;6697214;26;20047;-76
2024/04/19 01:11:23;;;;;;;1.27;0.90;;;;;;;;;;6672713;26;20016;-76
2024/04/19 01:14:23;;;;;;;1.40;1.10;;;;;;;;;;6675443;26;20349;-76
2024/04/19 01:17:23;;;;;;;1.40;1.13;;;;;;;;;;6695960;26;20004;-76
2024/04/19 01:20:24;;;;;;;1.17;1.00;;;;;;;;;;6665233;26;20023;-76
2024/04/19 01:23:24;;;;;;;0.83;0.83;;;;;;;;;;6667471;26;20000;-77
2024/04/19 01:26:24;;;;;;;1.07;1.03;;;;;;;;;;6700600;26;20444;-76
2024/04/19 01:29:25;;;;;;;1.20;1.10;;;;;;;;;;6698877;26;20037;-76
2024/04/19 01:32:25;;;;;;;1.10;1.00;;;;;;;;;;6693747;26;20114;-77
2024/04/19 01:35:25;;;;;;;1.10;0.93;;;;;;;;;;6699990;26;20023;-76
2024/04/19 01:38:26;;;;;;;0.93;0.93;;;;;;;;;;6695529;26;20332;-76
2024/04/19 01:41:26;;;;;;;1.03;0.93;;;;;;;;;;6698069;26;20168;-76
2024/04/19 01:44:26;;;;;;;1.00;0.90;;;;;;;;;;6696136;26;20020;-76
2024/04/19 01:47:26;;;;;;;1.30;0.90;;;;;;;;;;6701211;26;20452;-76
2024/04/19 01:50:27;;;;;;;1.10;1.00;;;;;;;;;;6699242;26;20018;-79
2024/04/19 01:53:27;;;;;;;1.60;1.07;;;;;;;;;;6699190;26;20090;-79
2024/04/19 01:56:28;;;;;;;0.75;0.75;;;;;;;;;;6697663;26;20376;-79
2024/04/19 01:59:29;;;;;;;0.93;0.90;;;;;;;;;;6696480;26;20014;-79
2024/04/19 02:02:30;;;;;;;0.90;0.90;;;;;;;;;;6697215;26;20395;-78
2024/04/19 02:05:31;;;;;;;0.90;0.90;;;;;;;;;;6695756;26;20019;-78
2024/04/19 02:08:31;;;;;;;1.10;1.00;;;;;;;;;;6697168;26;20000;-78
2024/04/19 02:11:31;;;;;;;1.30;0.90;;;;;;;;;;6699873;26;20079;-78
2024/04/19 02:14:32;;;;;;;1.00;0.90;;;;;;;;;;6703276;26;20328;-78
2024/04/19 02:17:33;;;;;;;1.30;1.20;;;;;;;;;;6702153;26;20340;-79
2024/04/19 02:20:33;;;;;;;0.90;0.90;;;;;;;;;;6702121;26;20000;-78
2024/04/19 02:23:36;;;;;;;1.30;0.83;;;;;;;;;;6700641;26;20069;-78
2024/04/19 02:26:36;;;;;;;1.13;1.02;;;;;;;;;;6668380;26;19995;-78
2024/04/19 02:32:56;;;;;;;1.42;1.10;;;;;;;;;;6698538;26;20294;-78
2024/04/19 02:35:56;;;;;;;0.80;0.80;;;;;;;;;;6675840;26;20010;-78
2024/04/19 02:38:56;;;;;;;0.90;0.90;;;;;;;;;;6701453;26;19995;-78
2024/04/19 02:41:56;;;;;;;1.10;1.00;;;;;;;;;;6700272;26;19987;-78
2024/04/19 02:44:57;;;;;;;0.70;0.70;;;;;;;;;;6696491;26;20023;-78
2024/04/19 02:47:57;;;;;;;0.90;0.90;;;;;;;;;;6700552;26;19999;-78
2024/04/19 02:50:57;;;;;;;1.67;0.90;;;;;;;;;;6694626;26;19996;-78
2024/04/19 02:53:57;;;;;;;0.80;0.80;;;;;;;;;;6693691;26;20014;-78
2024/04/19 02:56:58;;;;;;;1.00;0.83;;;;;;;;;;6716619;26;20014;-78
2024/04/19 02:59:58;;;;;;;0.80;0.80;;;;;;;;;;6723911;26;20010;-78
2024/04/19 03:02:58;;;;;;;0.87;0.87;;;;;;;;;;6724839;26;20380;-78
2024/04/19 03:05:58;;;;;;;0.93;0.83;;;;;;;;;;6709863;26;20446;-78
2024/04/19 03:09:01;;;;;;;1.17;0.90;;;;;;;;;;6679922;26;20332;-78
2024/04/19 03:12:01;;;;;;;0.68;0.68;;;;;;;;;;6714297;26;20018;-78
2024/04/19 03:15:01;;;;;;;1.10;0.97;;;;;;;;;;6728814;26;19992;-78
2024/04/19 03:18:01;;;;;;;1.53;0.70;;;;;;;;;;6729422;26;19992;-78
2024/04/19 03:21:02;;;;;;;0.73;0.73;;;;;;;;;;6692514;26;19996;-78
2024/04/19 03:24:03;;;;;;;1.10;0.85;;;;;;;;;;6725656;26;20080;-78
2024/04/19 03:27:03;;;;;;;1.30;0.83;;;;;;;;;;6727839;26;19995;-79
2024/04/19 03:30:04;;;;;;;0.90;0.90;;;;;;;;;;6728732;26;19991;-78
2024/04/19 03:33:04;;;;;;;0.87;0.83;;;;;;;;;;6697723;26;20356;-78
2024/04/19 03:36:06;;;;;;;0.93;0.87;;;;;;;;;;6725627;26;20442;-78
2024/04/19 03:39:09;;;;;;;0.80;0.80;;;;;;;;;;6695186;26;20387;-79
2024/04/19 03:42:13;;;;;;;1.10;0.88;;;;;;;;;;6724721;26;20003;-78
2024/04/19 03:48:36;;;;;;;0.90;0.80;;;;;;;;;;6684710;26;20008;-78
2024/04/19 03:51:36;;;;;;;0.83;0.83;;;;;;;;;;6683130;26;20042;-78
2024/04/19 03:54:36;;;;;;;0.77;0.77;;;;;;;;;;6724942;26;20521;-78
2024/04/19 03:57:36;;;;;;;0.93;0.83;;;;;;;;;;6695754;26;20501;-78
2024/04/19 04:00:39;;;;;;;1.77;0.90;;;;;;;;;;6694044;26;20441;-78
2024/04/19 04:03:40;;;;;;;1.20;0.95;;;;;;;;;;6702800;26;19991;-78
2024/04/19 04:06:40;;;;;;;1.50;1.20;;;;;;;;;;6683709;26;20444;-78
2024/04/19 04:09:40;;;;;;;1.17;1.07;;;;;;;;;;6684180;26;20087;-78
2024/04/19 04:12:40;;;;;;;2.47;1.17;;;;;;;;;;6713777;26;20000;-79
2024/04/19 04:15:41;;;;;;;1.27;1.17;;;;;;;;;;6725116;26;19991;-78
2024/04/19 04:18:41;;;;;;;1.53;1.10;;;;;;;;;;6733593;26;20052;-78
2024/04/19 04:21:41;;;;;;;1.20;1.10;;;;;;;;;;6714138;26;20046;-78
2024/04/19 04:24:41;;;;;;;1.07;0.97;;;;;;;;;;6726669;26;19991;-78
2024/04/19 04:27:42;;;;;;;1.20;1.10;;;;;;;;;;6727884;26;20015;-78
2024/04/19 04:30:42;;;;;;;1.80;1.30;;;;;;;;;;6725173;26;20011;-78
2024/04/19 04:33:42;;;;;;;1.87;1.67;;;;;;;;;;6727895;26;20066;-78
2024/04/19 04:36:42;;;;;;;3.80;2.40;;;;;;;;;;6711547;26;20449;-78
2024/04/19 04:39:43;;;;;;;1.67;1.57;;;;;;;;;;6683136;26;20457;-78
2024/04/19 04:42:43;;;;;;;1.73;1.63;;;;;;;;;;6698958;26;20010;-78
2024/04/19 04:45:43;;;;;;;2.07;1.87;;;;;;;;;;6725148;26;20321;-78
2024/04/19 04:48:44;;;;;;;2.00;1.70;;;;;;;;;;6655862;26;20471;-78
2024/04/19 04:51:44;;;;;;;2.33;1.80;;;;;;;;;;6681490;26;20007;-78
2024/04/19 04:54:44;;;;;;;2.13;1.60;;;;;;;;;;6683462;26;19996;-78
2024/04/19 04:57:44;;;;;;;2.60;1.93;;;;;;;;;;6683520;26;19985;-78
2024/04/19 05:00:47;;;;;;;2.13;1.93;;;;;;;;;;6717098;26;20019;-78
2024/04/19 05:03:47;;;;;;;2.83;2.22;;;;;;;;;;6725207;26;19995;-78
2024/04/19 05:06:47;;;;;;;3.17;2.17;;;;;;;;;;6685695;26;20351;-78
2024/04/19 05:09:49;;;;;;;2.43;2.13;;;;;;;;;;6685105;26;19996;-78
2024/04/19 05:12:49;;;;;;;3.17;2.70;;;;;;;;;;6682865;26;20022;-78
2024/04/19 05:15:51;;;;;;;3.17;2.43;;;;;;;;;;6738034;26;20003;-78
2024/04/19 05:18:51;;;;;;;2.70;2.45;;;;;;;;;;6772104;26;20030;-78
2024/04/19 05:21:52;;;;;;;2.70;2.20;;;;;;;;;;6724437;26;20009;-76
2024/04/19 05:24:52;;;;;;;2.20;2.00;;;;;;;;;;6727163;26;20094;-76
2024/04/19 05:27:52;;;;;;;2.60;2.20;;;;;;;;;;6695115;26;20072;-76
2024/04/19 05:30:52;;;;;;;2.20;2.00;;;;;;;;;;6695800;26;20008;-77
2024/04/19 05:33:53;;;;;;;2.60;2.23;;;;;;;;;;6715545;26;20007;-76
2024/04/19 05:36:53;;;;;;;2.45;2.25;;;;;;;;;;6682550;26;20007;-77
2024/04/19 05:39:53;;;;;;;2.57;2.03;;;;;;;;;;6697853;26;20073;-77
2024/04/19 05:42:54;;;;;;;2.53;2.00;;;;;;;;;;6708436;26;20398;-76
2024/04/19 05:45:54;;;;;;;2.57;2.13;;;;;;;;;;6724587;26;20323;-76
2024/04/19 05:48:54;;;;;;;2.13;1.87;;;;;;;;;;6697709;26;20000;-76
2024/04/19 05:51:54;;;;;;;2.70;2.20;;;;;;;;;;6710348;26;20046;-76
2024/04/19 05:54:55;;;;;;;3.40;2.93;;;;;;;;;;6723050;26;20007;-77
2024/04/19 05:57:55;;;;;;;4.10;2.57;;;;;;;;;;6684175;26;20002;-76
2024/04/19 06:00:55;;;;;;;2.97;2.20;;;;;;;;;;6685692;26;19996;-77
2024/04/19 06:03:56;;;;;;;2.10;1.90;;;;;;;;;;6726295;26;20432;-76
2024/04/19 06:06:56;;;;;;;1.80;1.70;;;;;;;;;;6711937;26;20437;-76
2024/04/19 06:09:56;;;;;;;1.97;1.77;;;;;;;;;;6681209;26;20000;-76
2024/04/19 06:12:56;;;;;;;2.00;1.77;;;;;;;;;;6730709;26;20482;-76
2024/04/19 06:15:57;;;;;;;2.00;1.80;;;;;;;;;;6721274;26;20432;-76
2024/04/19 06:18:57;;;;;;;1.70;1.60;;;;;;;;;;6682208;26;19992;-76
2024/04/19 06:21:57;;;;;;;2.20;1.57;;;;;;;;;;6679442;26;20003;-76
2024/04/19 06:24:57;;;;;;;2.63;1.67;;;;;;;;;;6700821;26;20093;-76
2024/04/19 06:27:58;;;;;;;1.60;1.50;;;;;;;;;;6725808;26;20061;-76
2024/04/19 06:31:08;;;;;;;1.53;1.43;;;;;;;;;;6720227;26;19996;-77
2024/04/19 06:34:09;;;;;;;1.50;1.40;;;;;;;;;;6723314;26;19996;-77
2024/04/19 06:37:09;;;;;;;1.73;1.30;;;;;;;;;;6680227;26;20416;-78
2024/04/19 06:40:09;;;;;;;1.50;1.40;;;;;;;;;;6662900;26;20457;-79
2024/04/19 06:43:09;;;;;;;4.60;1.90;;;;;;;;;;6710525;26;20010;-80
2024/04/19 06:46:10;;;;;;;1.87;1.40;;;;;;;;;;6697265;26;20011;-78
2024/04/19 06:49:10;;;;;;;1.73;1.58;;;;;;;;;;6725189;26;20006;-78
2024/04/19 06:52:10;;;;;;;1.47;1.37;;;;;;;;;;6706640;26;19991;-77
2024/04/19 06:55:11;;;;;;;1.33;1.23;;;;;;;;;;6755659;26;20043;-78
2024/04/19 06:58:11;;;;;;;1.60;1.50;;;;;;;;;;6693980;26;19996;-78
2024/04/19 07:01:11;;;;;;;1.57;1.47;;;;;;;;;;6703351;26;20043;-78
2024/04/19 07:04:12;;;;;;;1.60;1.20;;;;;;;;;;6681500;26;20032;-77
2024/04/19 07:07:12;;;;;;;1.40;1.27;;;;;;;;;;6671097;26;19999;-77
2024/04/19 07:10:13;;;;;;;1.30;1.20;;;;;;;;;;6709388;26;20065;-77
2024/04/19 07:13:13;;;;;;;1.67;1.57;;;;;;;;;;6717633;26;20448;-78
2024/04/19 07:16:14;;;;;;;1.33;1.23;;;;;;;;;;6700095;26;20020;-78
2024/04/19 07:19:14;;;;;;;1.73;1.40;;;;;;;;;;6680254;26;20410;-78
2024/04/19 07:22:14;;;;;;;1.47;1.30;;;;;;;;;;6721550;26;20000;-77
2024/04/19 07:25:15;;;;;;;2.67;1.20;;;;;;;;;;6715997;26;20000;-77
2024/04/19 07:28:15;;;;;;;1.30;1.20;;;;;;;;;;6684661;26;20011;-77
2024/04/19 07:31:16;;;;;;;1.33;1.23;;;;;;;;;;6702512;26;20000;-77
2024/04/19 07:34:16;;;;;;;1.90;1.70;;;;;;;;;;6700447;26;20376;-77
2024/04/19 07:37:16;;;;;;;2.53;2.30;;;;;;;;;;6692554;26;19996;-78
2024/04/19 07:40:16;;;;;;;2.03;1.60;;;;;;;;;;6679299;26;20001;-77
2024/04/19 07:43:16;;;;;;;1.67;1.57;;;;;;;;;;6687657;26;20010;-77
2024/04/19 07:46:17;;;;;;;1.47;1.33;;;;;;;;;;6692064;26;20394;-77
2024/04/19 07:49:17;;;;;;;1.40;1.30;;;;;;;;;;6711143;26;20017;-77
2024/04/19 07:52:17;;;;;;;1.50;1.40;;;;;;;;;;6678345;26;20024;-77
2024/04/19 07:55:17;;;;;;;1.37;0.90;;;;;;;;;;6692005;26;20007;-77
2024/04/19 07:58:22;;;;;;;1.20;1.10;;;;;;;;;;6679552;26;20007;-78
2024/04/19 08:01:23;;;;;;;1.58;1.20;;;;;;;;;;6694875;26;20011;-78
2024/04/19 08:04:23;;;;;;;1.27;1.17;;;;;;;;;;6702243;26;20019;-76
2024/04/19 08:07:26;;;;;;;1.20;1.10;;;;;;;;;;6694254;26;20004;-76
2024/04/19 08:10:26;;;;;;;1.13;1.02;;;;;;;;;;6723040;26;20102;-76
2024/04/19 08:13:26;;;;;;;1.13;0.97;;;;;;;;;;6691682;26;20472;-75
2024/04/19 08:16:27;;;;;;;0.97;0.87;;;;;;;;;;6708488;26;19991;-76
2024/04/19 08:19:28;;;;;;;0.98;0.90;;;;;;;;;;6718126;26;20072;-76
2024/04/19 08:22:28;;;;;;;0.82;0.82;;;;;;;;;;6721129;26;20040;-76
2024/04/19 08:25:29;;;;;;;1.23;0.80;;;;;;;;;;6715952;26;20448;-76
2024/04/19 08:28:29;;;;;;;0.97;0.77;;;;;;;;;;6702945;26;20432;-76
2024/04/19 08:31:29;;;;;;;1.33;0.57;;;;;;;;;;6726407;26;19999;-76
2024/04/19 08:34:29;;;;;;;0.53;0.50;;;;;;;;;;6725890;26;20366;-76
2024/04/19 08:37:31;;;;;;;0.77;0.77;;;;;;;;;;6719503;26;20011;-76
2024/04/19 08:40:32;;;;;;;0.70;0.70;;;;;;;;;;6715993;26;20001;-76
2024/04/19 08:43:36;;;;;;;;;;;;;;;;;;6700285;26;20040;-76
2024/04/19 08:46:37;;;;;;;0.95;0.47;;;;;;;;;;6699719;26;19961;-76
2024/04/19 08:49:39;;;;;;;0.55;0.50;;;;;;;;;;6722721;26;19999;-77
2024/04/19 08:52:40;;;;;;;0.70;0.63;;;;;;;;;;6721080;26;20003;-76
2024/04/19 08:55:41;;;;;;;0.47;0.47;;;;;;;;;;6719827;26;19995;-76
2024/04/19 08:58:41;;;;;;;0.70;0.70;;;;;;;;;;6699867;26;19992;-76
2024/04/19 09:01:41;;;;;;;0.50;0.50;;;;;;;;;;6706658;26;20044;-76
2024/04/19 09:04:42;;;;;;;1.00;0.70;;;;;;;;;;6323411;26;10000026;-76
2024/04/19 09:07:42;;;;;;;1.00;0.90;;;;;;;;;;6704883;26;20081;-76
2024/04/19 09:10:42;;;;;;;0.70;0.63;;;;;;;;;;6700096;26;20243;-76
2024/04/19 09:13:43;;;;;;;0.63;0.60;;;;;;;;;;6698010;26;20450;-76
2024/04/19 09:16:43;;;;;;;1.00;0.60;;;;;;;;;;6725476;26;20006;-76
2024/04/19 09:19:44;;;;;;;0.57;0.57;;;;;;;;;;6694132;26;20440;-76
2024/04/19 09:22:44;;;;;;;0.70;0.60;;;;;;;;;;6701803;26;20488;-76
2024/04/19 09:25:50;;;;;;;1.17;0.60;;;;;;;;;;6718106;26;20015;-76
2024/04/19 09:28:51;;;;;;;0.75;0.65;;;;;;;;;;6733161;26;20004;-76
2024/04/19 09:31:52;;;;;;;1.67;0.80;;;;;;;;;;6714897;26;20447;-76
2024/04/19 09:34:52;;;;;;;0.90;0.75;;;;;;;;;;6710347;26;19999;-76
2024/04/19 09:37:53;;;;;;;1.03;0.90;;;;;;;;;;6723093;26;20023;-76
2024/04/19 09:40:53;;;;;;;0.70;0.70;;;;;;;;;;6751455;26;20008;-76
2024/04/19 09:43:58;;;;;;;0.60;0.60;;;;;;;;;;6720536;26;20084;-76
2024/04/19 09:47:01;;;;;;;0.80;0.80;;;;;;;;;;6701920;26;20229;-76
2024/04/19 09:50:02;;;;;;;0.75;0.70;;;;;;;;;;6718297;26;20536;-76
2024/04/19 09:53:08;;;;;;;0.65;0.65;;;;;;;;;;6700135;26;20007;-76
2024/04/19 09:56:23;;;;;;;0.70;0.70;;;;;;;;;;6708428;26;20052;-77
2024/04/19 09:59:24;;;;;;;0.70;0.70;;;;;;;;;;6714616;26;20004;-75
2024/04/19 10:02:25;;;;;;;0.65;0.65;;;;;;;;;;6694492;26;20061;-76
2024/04/19 10:05:25;;;;;;;;;;;;;;;;;;6717039;26;20007;-76
2024/04/19 10:08:27;;;;;;;0.40;0.40;;;;;;;;;;6726172;26;20002;-76
2024/04/19 10:11:27;;;;;;;0.70;0.55;;;;;;;;;;6720311;26;20003;-76
2024/04/19 10:14:29;;;;;;;0.70;0.60;;;;;;;;;;6707211;26;20301;-76
2024/04/19 10:17:29;;;;;;;0.70;0.60;;;;;;;;;;6719867;26;20026;-76
2024/04/19 10:20:29;;;;;;;1.10;0.70;;;;;;;;;;6679230;26;20000;-79
2024/04/19 10:23:30;;;;;;;0.80;0.73;;;;;;;;;;6709660;26;20098;-73
2024/04/19 10:26:30;;;;;;;0.70;0.70;;;;;;;;;;6681894;26;20007;-78
2024/04/19 10:29:30;;;;;;;0.97;0.80;;;;;;;;;;6689994;26;20018;-77
2024/04/19 10:32:30;;;;;;;1.13;0.73;;;;;;;;;;6720015;26;20010;-79
2024/04/19 10:35:34;;;;;;;1.87;0.53;;;;;;;;;;6683370;26;20074;-76
2024/04/19 10:38:35;;;;;;;0.68;0.65;;;;;;;;;;6681486;26;19996;-76
2024/04/19 10:41:35;;;;;;;0.77;0.73;;;;;;;;;;6681450;26;20337;-76
2024/04/19 10:44:38;;;;;;;0.47;0.47;;;;;;;;;;6698465;26;20325;-76
2024/04/19 10:47:41;;;;;;;1.10;0.70;;;;;;;;;;6686504;26;20015;-77
2024/04/19 10:50:43;;;;;;;0.70;0.70;;;;;;;;;;6697273;26;20000;-78
2024/04/19 10:53:44;;;;;;;0.50;0.50;;;;;;;;;;6748270;26;19999;-77
2024/04/19 10:56:44;;;;;;;2.05;0.90;;;;;;;;;;6706060;26;20463;-77
2024/04/19 10:59:44;;;;;;;1.40;0.93;;;;;;;;;;6681143;26;19992;-77
2024/04/19 11:02:45;;;;;;;0.97;0.80;;;;;;;;;;6681078;26;20271;-77
2024/04/19 11:05:45;;;;;;;0.60;0.60;;;;;;;;;;6716250;26;20403;-77
2024/04/19 11:08:46;;;;;;;1.00;0.80;;;;;;;;;;6737766;26;20447;-77
2024/04/19 11:11:46;;;;;;;1.13;0.80;;;;;;;;;;6732007;26;20068;-78
2024/04/19 11:14:46;;;;;;;0.93;0.80;;;;;;;;;;6675950;26;20433;-78
2024/04/19 11:17:47;;;;;;;1.20;0.87;;;;;;;;;;6689139;26;20226;-77
2024/04/19 11:20:47;;;;;;;0.70;0.70;;;;;;;;;;6680217;26;20001;-78
2024/04/19 11:23:47;;;;;;;0.50;0.50;;;;;;;;;;6680553;26;20465;-77
2024/04/19 11:26:49;;;;;;;0.70;0.70;;;;;;;;;;6680484;26;19996;-78
2024/04/19 11:29:49;;;;;;;0.47;0.45;;;;;;;;;;6680397;26;20437;-78
2024/04/19 11:32:50;;;;;;;0.50;0.50;;;;;;;;;;6683299;26;20018;-78
2024/04/19 11:35:52;;;;;;;0.40;0.40;;;;;;;;;;6683819;26;20003;-77
2024/04/19 11:38:53;;;;;;;0.65;0.47;;;;;;;;;;6684442;26;20004;-77
2024/04/19 11:41:54;;;;;;;0.57;0.52;;;;;;;;;;6683837;26;20337;-78
2024/04/19 11:44:54;;;;;;;0.50;0.50;;;;;;;;;;6722382;26;20014;-78
2024/04/19 11:47:57;;;;;;;0.40;0.40;;;;;;;;;;6700907;26;20032;-78
2024/04/19 11:50:57;;;;;;;0.40;0.40;;;;;;;;;;6761833;26;20011;-78
2024/04/19 11:53:58;;;;;;;0.33;0.33;;;;;;;;;;6674295;26;20015;-77
2024/04/19 11:56:59;;;;;;;0.40;0.30;;;;;;;;;;6719186;26;20316;-77
2024/04/19 11:59:59;;;;;;;;;;;;;;;;;;6728822;26;19994;-77
2024/04/19 12:02:59;;;;;;;0.63;0.30;;;;;;;;;;6728498;26;19925;-77
2024/04/19 12:06:00;;;;;;;1.07;0.30;;;;;;;;;;6725378;26;20000;-77
2024/04/19 12:09:00;;;;;;;0.63;0.40;;;;;;;;;;6727640;26;20037;-77
2024/04/19 12:12:03;;;;;;;0.20;0.20;;;;;;;;;;6689914;26;20277;-77
2024/04/19 12:15:03;;;;;;;0.38;0.38;;;;;;;;;;6728114;26;20219;-77
2024/04/19 12:18:04;;;;;;;0.30;0.30;;;;;;;;;;6728432;26;20072;-77
2024/04/19 12:21:04;;;;;;;0.30;0.30;;;;;;;;;;6724850;26;20532;-77
2024/04/19 12:24:04;;;;;;;0.30;0.30;;;;;;;;;;6727466;26;20209;-77
2024/04/19 12:27:06;;;;;;;0.53;0.40;;;;;;;;;;6726110;26;19988;-77
2024/04/19 12:30:06;;;;;;;0.40;0.30;;;;;;;;;;6727506;26;20007;-77
2024/04/19 12:33:07;;;;;;;1.23;0.50;;;;;;;;;;6718821;26;19996;-77
2024/04/19 12:36:07;;;;;;;0.40;0.40;;;;;;;;;;6688278;26;20004;-77
2024/04/19 12:39:08;;;;;;;0.40;0.40;;;;;;;;;;6696202;26;20368;-77
2024/04/19 12:42:08;;;;;;;0.60;0.60;;;;;;;;;;6695231;26;20275;-77
2024/04/19 12:45:08;;;;;;;0.57;0.47;;;;;;;;;;6722395;26;19994;-77
2024/04/19 12:48:09;;;;;;;0.60;0.57;;;;;;;;;;6801230;26;19991;-77
2024/04/19 12:51:09;;;;;;;0.70;0.50;;;;;;;;;;6771145;26;19995;-77
2024/04/19 12:54:09;;;;;;;0.70;0.70;;;;;;;;;;6652846;26;20015;-77
2024/04/19 12:57:09;;;;;;;0.80;0.50;;;;;;;;;;6710913;26;20374;-77
2024/04/19 13:00:10;;;;;;;0.50;0.50;;;;;;;;;;6653035;26;20012;-77
2024/04/19 13:03:10;;;;;;;0.40;0.40;;;;;;;;;;6704155;26;20000;-77
2024/04/19 13:06:11;;;;;;;0.37;0.37;;;;;;;;;;6700125;26;19992;-77
2024/04/19 13:09:11;;;;;;;1.10;0.50;;;;;;;;;;6681496;26;20461;-78
2024/04/19 13:12:11;;;;;;;0.50;0.50;;;;;;;;;;6700604;26;20011;-76
2024/04/19 13:15:11;;;;;;;1.17;0.60;;;;;;;;;;6717099;26;19994;-76
2024/04/19 13:18:12;;;;;;;0.70;0.60;;;;;;;;;;6713891;26;20016;-77
2024/04/19 13:21:12;;;;;;;0.60;0.60;;;;;;;;;;6699723;26;20031;-77
2024/04/19 13:24:13;;;;;;;0.80;0.50;;;;;;;;;;6726453;26;20309;-75
2024/04/19 13:27:16;;;;;;;0.90;0.40;;;;;;;;;;6726572;26;20065;-75
2024/04/19 13:30:16;;;;;;;0.40;0.40;;;;;;;;;;6694944;26;20007;-75
2024/04/19 13:33:16;;;;;;;0.50;0.40;;;;;;;;;;6726590;26;20010;-75
2024/04/19 13:36:17;;;;;;;0.53;0.43;;;;;;;;;;6711119;26;20024;-75
2024/04/19 13:39:17;;;;;;;0.30;0.30;;;;;;;;;;6714884;26;20449;-76
2024/04/19 13:42:17;;;;;;;0.97;0.33;;;;;;;;;;6727947;26;20008;-75
2024/04/19 13:45:18;;;;;;;0.40;0.40;;;;;;;;;;6725450;26;20453;-76
2024/04/19 13:48:18;;;;;;;0.33;0.33;;;;;;;;;;6690834;26;20000;-76
2024/04/19 13:51:18;;;;;;;0.57;0.40;;;;;;;;;;6682541;26;20015;-76
2024/04/19 13:54:19;;;;;;;0.70;0.50;;;;;;;;;;6725966;26;20024;-76
2024/04/19 13:57:20;;;;;;;0.68;0.68;;;;;;;;;;6713452;26;20429;-75
2024/04/19 14:00:20;;;;;;;0.63;0.50;;;;;;;;;;6716364;26;20521;-76
2024/04/19 14:03:20;;;;;;;0.60;0.43;;;;;;;;;;6680427;26;20024;-76
2024/04/19 14:06:22;;;;;;;0.53;0.53;;;;;;;;;;6693040;26;20005;-76
2024/04/19 14:09:22;;;;;;;0.38;0.38;;;;;;;;;;6697810;26;20019;-80
2024/04/19 14:12:22;;;;;;;0.30;0.30;;;;;;;;;;6723956;26;20010;-75
2024/04/19 14:15:22;;;;;;;0.40;0.30;;;;;;;;;;6694381;26;20011;-75
2024/04/19 14:18:23;;;;;;;0.57;0.43;;;;;;;;;;6700568;26;19992;-75
2024/04/19 14:21:23;;;;;;;0.73;0.70;;;;;;;;;;6703424;26;20005;-75
2024/04/19 14:24:23;;;;;;;0.90;0.60;;;;;;;;;;6721547;26;20007;-75
2024/04/19 14:27:23;;;;;;;0.60;0.40;;;;;;;;;;6694333;26;20074;-75
2024/04/19 14:30:24;;;;;;;0.47;0.30;;;;;;;;;;6711964;26;20029;-76
2024/04/19 14:33:24;;;;;;;0.20;0.20;;;;;;;;;;6710074;26;19992;-75
2024/04/19 14:36:24;;;;;;;0.20;0.20;;;;;;;;;;6680544;26;20016;-75
2024/04/19 14:39:24;;;;;;;1.73;1.53;;;;;;;;;;6696478;26;20000;-75
2024/04/19 14:42:25;;;;;;;1.07;0.80;;;;;;;;;;6691343;26;20061;-76
2024/04/19 14:45:25;;;;;;;0.60;0.43;;;;;;;;;;6724638;26;19996;-76
2024/04/19 14:48:26;;;;;;;0.30;0.30;;;;;;;;;;6725595;26;20424;-76
2024/04/19 14:51:26;;;;;;;0.30;0.30;;;;;;;;;;6724088;26;20723;-76
2024/04/19 14:54:27;;;;;;;0.37;0.20;;;;;;;;;;6722236;26;20407;-76
2024/04/19 14:57:27;;;;;;;;;;;;;;;;;;6719549;26;19996;-76
2024/04/19 15:00:27;;;;;;;0.52;0.30;;;;;;;;;;6700236;26;19957;-76
2024/04/19 15:03:28;;;;;;;0.20;0.13;;;;;;;;;;6715877;26;20019;-76
2024/04/19 15:06:32;;;;;;;0.20;0.20;;;;;;;;;;6706790;26;20003;-76
2024/04/19 15:09:33;;;;;;;0.20;0.20;;;;;;;;;;6693114;26;20014;-75
2024/04/19 15:12:33;;;;;;;0.20;0.20;;;;;;;;;;6713945;26;20513;-76
2024/04/19 15:15:34;;;;;;;0.40;0.20;;;;;;;;;;6690321;26;20015;-76
2024/04/19 15:18:34;;;;;;;1.60;0.20;;;;;;;;;;6683755;26;20008;-76
2024/04/19 15:21:35;;;;;;;0.20;0.20;;;;;;;;;;6691929;26;20074;-75
2024/04/19 15:24:35;;;;;;;0.27;0.20;;;;;;;;;;6689544;26;20008;-76
2024/04/19 15:27:35;;;;;;;0.20;0.20;;;;;;;;;;6695566;26;20334;-76
2024/04/19 15:30:42;;;;;;;0.30;0.30;;;;;;;;;;6680063;26;20465;-76
2024/04/19 15:33:42;;;;;;;0.22;0.15;;;;;;;;;;6692873;26;20003;-76
2024/04/19 15:36:44;;;;;;;0.63;0.50;;;;;;;;;;6692787;26;20000;-76
2024/04/19 15:39:46;;;;;;;0.30;0.30;;;;;;;;;;6682744;26;20003;-76
2024/04/19 15:42:48;;;;;;;0.43;0.20;;;;;;;;;;6694968;26;20349;-76
2024/04/19 15:45:48;;;;;;;0.20;0.20;;;;;;;;;;6687339;26;20007;-76
2024/04/19 15:48:48;;;;;;;0.20;0.20;;;;;;;;;;6695228;26;20019;-76
2024/04/19 15:51:49;;;;;;;0.20;0.20;;;;;;;;;;6678861;26;20439;-76
2024/04/19 15:54:51;;;;;;;0.10;0.10;;;;;;;;;;6716834;26;20007;-76
2024/04/19 15:57:51;;;;;;;0.10;0.10;;;;;;;;;;6705630;26;20000;-76
2024/04/19 16:00:51;;;;;;;0.20;0.20;;;;;;;;;;6694907;26;20057;-76
2024/04/19 16:03:52;;;;;;;0.47;0.23;;;;;;;;;;6696461;26;20072;-76
2024/04/19 16:06:52;;;;;;;0.47;0.17;;;;;;;;;;6692329;26;20452;-76
2024/04/19 16:09:52;;;;;;;0.37;0.30;;;;;;;;;;6683307;26;20482;-76
2024/04/19 16:12:53;;;;;;;0.23;0.23;;;;;;;;;;6765422;26;20376;-76
2024/04/19 16:16:03;;;;;;;0.30;0.30;;;;;;;;;;6728747;26;19996;-76
2024/04/19 16:19:03;;;;;;;0.30;0.30;;;;;;;;;;6683004;26;19996;-74
2024/04/19 16:22:03;;;;;;;0.30;0.27;;;;;;;;;;6685483;26;20000;-73
2024/04/19 16:25:04;;;;;;;0.53;0.40;;;;;;;;;;6675037;26;20016;-73
2024/04/19 16:28:04;;;;;;;0.33;0.30;;;;;;;;;;6727585;26;20006;-72
2024/04/19 16:31:04;;;;;;;0.57;0.37;;;;;;;;;;6707187;26;20450;-76
2024/04/19 16:34:05;;;;;;;0.63;0.30;;;;;;;;;;6709144;26;19997;-76
2024/04/19 16:37:05;;;;;;;0.40;0.30;;;;;;;;;;6688266;26;20000;-76
2024/04/19 16:40:05;;;;;;;0.33;0.33;;;;;;;;;;6684121;26;19996;-76
2024/04/19 16:43:06;;;;;;;0.60;0.40;;;;;;;;;;6684347;26;19992;-76
2024/04/19 16:46:07;;;;;;;1.33;0.95;;;;;;;;;;6718645;26;20176;-76
2024/04/19 16:49:07;;;;;;;2.17;1.40;;;;;;;;;;6718760;26;20015;-76
2024/04/19 16:52:10;;;;;;;1.43;0.97;;;;;;;;;;6726005;26;20032;-75
2024/04/19 16:55:12;;;;;;;0.80;0.57;;;;;;;;;;6727425;26;19995;-75
2024/04/19 16:58:12;;;;;;;0.60;0.50;;;;;;;;;;6696563;26;20057;-76
2024/04/19 17:01:14;;;;;;;0.60;0.50;;;;;;;;;;6724852;26;20456;-74
2024/04/19 17:04:16;;;;;;;0.30;0.30;;;;;;;;;;6707790;26;20468;-76
2024/04/19 17:07:17;;;;;;;0.40;0.32;;;;;;;;;;6724969;26;20076;-75
2024/04/19 17:10:17;;;;;;;0.30;0.30;;;;;;;;;;6698394;26;20005;-76
2024/04/19 17:13:17;;;;;;;0.60;0.40;;;;;;;;;;6691369;26;20000;-76
2024/04/19 17:16:18;;;;;;;0.27;0.23;;;;;;;;;;6708865;26;20000;-75
2024/04/19 17:19:18;;;;;;;0.23;0.23;;;;;;;;;;6701626;26;20453;-75
2024/04/19 17:22:19;;;;;;;0.30;0.30;;;;;;;;;;6680735;26;20040;-76
2024/04/19 17:25:19;;;;;;;0.30;0.30;;;;;;;;;;6673563;26;20012;-76
2024/04/19 17:28:19;;;;;;;0.20;0.20;;;;;;;;;;6696416;26;20000;-75
2024/04/19 17:31:19;;;;;;;0.60;0.30;;;;;;;;;;6722404;26;20007;-75
2024/04/19 17:34:21;;;;;;;0.47;0.30;;;;;;;;;;6693318;26;19996;-76
2024/04/19 17:37:23;;;;;;;2.05;1.35;;;;;;;;;;6686049;26;20003;-75
2024/04/19 17:40:24;;;;;;;1.73;1.10;;;;;;;;;;6682378;26;20437;-76
2024/04/19 17:43:24;;;;;;;1.08;0.90;;;;;;;;;;6707249;26;20048;-76
2024/04/19 17:46:24;;;;;;;0.50;0.50;;;;;;;;;;6704184;26;20474;-76
2024/04/19 17:49:25;;;;;;;0.40;0.40;;;;;;;;;;6693272;26;20479;-76
2024/04/19 17:52:25;;;;;;;1.33;0.40;;;;;;;;;;6721973;26;20448;-77
2024/04/19 17:55:28;;;;;;;0.20;0.20;;;;;;;;;;6726359;26;20460;-75
2024/04/19 17:58:28;;;;;;;0.20;0.20;;;;;;;;;;6726388;26;19999;-75
2024/04/19 18:01:31;;;;;;;0.33;0.30;;;;;;;;;;6696163;26;20417;-75
2024/04/19 18:04:31;;;;;;;0.20;0.20;;;;;;;;;;6690158;26;19999;-75
2024/04/19 18:07:31;;;;;;;0.30;0.20;;;;;;;;;;6698276;26;19992;-75
2024/04/19 18:10:32;;;;;;;0.30;0.30;;;;;;;;;;6693236;26;20369;-76